Latest Weather Observations for Brisbane Airport

IDQ60801

Issued at 10:02 pm EST Tuesday 6 December 2016 (issued every 30 minutes, with the page automatically refreshed every 10 minutes)

About weather observations | Map of weather stations | Latest weather observations for QLD | Other Formats
Station Details ID: 040842 Name: BRISBANE AERO Lat: -27.39 Lon: 153.13 Height: 4.51 m
Data from the previous 72 hours. | See also: Recent months at Brisbane Airport
Date/Time
EST
Temp
°C
App
Temp
°C
Dew
Point
°C
Rel
Hum
%
Delta-T
°C
Wind Press
QNH
hPa
Press
MSL
hPa
Rain since
9am
mm
Dir  Spd
km/h
Gust
km/h
Spd
kts
Gust
kts
06/09:30pm 25.1 21.4 21.5 80 2.4 N 43 61 23 33 1011.1 1011.1 0.0
06/09:22pm 25.2 22.3 21.6 80 2.4 N 39 57 21 31 1011.0 1011.0 0.0
06/09:00pm 25.2 23.1 21.7 81 2.3 N 35 48 19 26 1011.3 1011.3 0.0
06/08:30pm 25.3 22.8 21.7 80 2.4 N 37 52 20 28 1011.0 1011.0 0.0
06/08:00pm 25.5 24.0 21.7 79 2.5 N 32 43 17 23 1011.1 1011.1 0.0
06/07:30pm 25.5 24.1 22.2 82 2.2 N 33 48 18 26 1010.8 1010.8 0.0
06/07:00pm 25.4 22.8 22.1 82 2.2 N 39 52 21 28 1010.1 1010.1 0.0
06/06:30pm 25.4 22.0 22.0 81 2.3 NNE 43 56 23 30 1009.7 1009.7 0.0
06/06:00pm 25.5 22.1 22.1 81 2.3 NNE 43 52 23 28 1009.5 1009.5 0.0
06/05:30pm 25.8 22.3 21.8 78 2.7 NNE 43 56 23 30 1009.0 1009.0 0.0
06/05:00pm 26.1 23.3 21.8 77 2.9 NNE 39 50 21 27 1008.5 1008.5 0.0
06/04:30pm 26.6 24.4 22.1 76 3.0 NNE 37 48 20 26 1008.5 1008.5 0.0
06/04:00pm 27.3 24.9 21.9 72 3.6 NNE 37 46 20 25 1008.3 1008.3 0.0
06/03:30pm 27.4 25.4 21.9 72 3.7 NNE 35 48 19 26 1008.7 1008.7 0.0
06/03:00pm 27.6 26.0 21.9 71 3.8 NNE 33 43 18 23 1009.2 1009.2 0.0
06/02:30pm 28.4 26.8 21.9 68 4.4 NNE 33 44 18 24 1009.6 1009.6 0.0
06/02:00pm 28.3 27.4 22.1 69 4.2 N 30 44 16 24 1010.3 1010.3 0.0
06/01:30pm 28.4 27.2 22.3 69 4.1 NNE 32 43 17 23 1011.0 1011.0 0.0
06/01:00pm 27.9 26.5 21.9 70 4.0 NNE 32 39 17 21 1011.4 1011.4 0.0
06/12:30pm 27.9 27.1 22.3 71 3.8 NNE 30 37 16 20 1012.4 1012.4 0.0
06/12:00pm 27.3 26.5 21.6 71 3.8 NNE 28 37 15 20 1013.1 1013.1 0.0
06/11:30am 27.1 25.3 21.2 70 3.9 N 32 50 17 27 1013.9 1013.9 0.0
06/11:28am 27.0 25.3 21.3 71 3.8 N 32 50 17 27 1014.0 1014.0 0.0
06/11:00am 27.5 26.0 22.0 72 3.7 N 33 39 18 21 1014.8 1014.8 0.0
06/10:30am 26.7 24.8 21.3 72 3.6 N 33 41 18 22 1015.2 1015.2 0.0
06/10:00am 26.8 25.2 21.5 72 3.5 N 32 41 17 22 1015.7 1015.7 0.0
06/09:30am 27.0 26.7 22.6 77 3.0 N 28 35 15 19 1016.5 1016.5 0.0
06/09:00am 25.6 24.1 21.7 79 2.6 N 32 37 17 20 1016.4 1016.4 4.8
06/08:30am 25.2 23.5 21.4 79 2.5 N 32 41 17 22 1016.7 1016.7 4.8
06/08:00am 24.7 23.3 21.2 81 2.3 NNE 30 39 16 21 1017.0 1017.0 4.8
06/07:30am 23.9 21.9 20.0 79 2.5 NNE 30 39 16 21 1017.5 1017.5 4.8
06/07:00am 23.8 22.7 21.8 88 1.3 NE 30 37 16 20 1017.6 1017.6 4.8
06/06:30am 23.2 22.9 21.1 88 1.4 ENE 24 33 13 18 1017.6 1017.6 4.8
06/06:00am 23.3 24.4 21.9 92 0.9 ENE 19 26 10 14 1017.6 1017.6 4.6
06/05:41am 23.7 24.5 21.7 88 1.3 NE 20 28 11 15 1017.3 1017.3 1.4
06/05:30am 24.3 25.1 21.3 83 2.0 NE 19 24 10 13 1017.0 1017.0 0.0
06/05:10am 24.4 25.6 21.4 83 2.0 NE 17 26 9 14 1016.6 1016.6 0.0
06/05:00am 24.3 25.2 21.6 85 1.8 NNE 19 28 10 15 1016.3 1016.3 0.0
06/04:30am 24.3 25.4 21.3 83 2.0 NNE 17 20 9 11 1015.3 1015.3 0.0
06/04:00am 24.4 25.4 21.0 81 2.2 N 17 26 9 14 1014.9 1014.9 0.0
06/03:30am 24.1 24.8 21.2 84 1.9 N 19 26 10 14 1014.1 1014.1 0.0
06/03:00am 24.0 22.9 21.1 84 1.9 N 28 33 15 18 1013.3 1013.3 0.0
06/02:30am 24.0 22.7 21.3 85 1.8 NNE 30 37 16 20 1013.2 1013.2 0.0
06/02:00am 24.3 24.2 21.4 84 1.9 N 24 32 13 17 1012.9 1012.9 0.0
06/01:30am 24.3 22.7 21.6 85 1.8 N 32 39 17 21 1012.6 1012.6 0.0
06/01:00am 24.6 22.2 21.1 81 2.3 N 35 46 19 25 1012.4 1012.4 0.0
06/12:38am 24.6 22.6 21.1 81 2.3 N 33 52 18 28 1012.5 1012.5 0.0
06/12:30am 24.6 22.3 21.3 82 2.2 N 35 46 19 25 1012.6 1012.6 0.0
06/12:00am 24.6 21.6 21.4 82 2.1 N 39 54 21 29 1012.6 1012.6 0.0
 
Date/Time
EST
Temp
°C
App
Temp
°C
Dew
Point
°C
Rel
Hum
%
Delta-T
°C
Wind Press
QNH
hPa
Press
MSL
hPa
Rain since
9am
mm
Dir  Spd
km/h
Gust
km/h
Spd
kts
Gust
kts
05/11:30pm 24.8 21.9 21.6 82 2.1 N 39 50 21 27 1012.7 1012.7 0.0
05/11:00pm 25.0 22.4 21.5 81 2.3 N 37 50 20 27 1012.4 1012.4 0.0
05/10:30pm 24.9 21.7 21.7 82 2.1 N 41 56 22 30 1012.0 1012.0 0.0
05/10:00pm 24.9 22.2 21.9 83 2.0 N 39 52 21 28 1012.1 1012.1 0.0
05/09:30pm 25.0 22.5 21.7 82 2.2 N 37 50 20 27 1012.0 1012.0 0.0
05/09:00pm 25.2 23.1 21.7 81 2.3 N 35 52 19 28 1012.1 1012.1 0.0
05/08:30pm 25.2 22.7 21.6 80 2.4 N 37 50 20 27 1011.7 1011.7 0.0
05/08:00pm 25.3 22.3 21.4 79 2.6 N 39 52 21 28 1011.4 1011.4 0.0
05/07:30pm 25.3 22.7 21.5 79 2.5 N 37 52 20 28 1011.4 1011.4 0.0
05/07:27pm 25.2 23.4 21.6 80 2.4 N 33 52 18 28 1011.4 1011.4 0.0
05/07:00pm 25.2 23.1 21.6 80 2.4 N 35 48 19 26 1011.2 1011.2 0.0
05/06:30pm 25.3 22.9 21.9 81 2.3 N 37 48 20 26 1011.1 1011.1 0.0
05/06:00pm 25.5 22.8 21.9 80 2.4 N 39 52 21 28 1011.1 1011.1 0.0
05/05:30pm 25.8 23.0 21.8 78 2.7 N 39 52 21 28 1011.0 1011.0 0.0
05/05:00pm 26.3 23.9 21.8 76 3.0 N 37 50 20 27 1011.1 1011.1 0.0
05/04:30pm 26.6 24.7 22.0 76 3.1 NNE 35 48 19 26 1011.1 1011.1 0.0
05/04:00pm 25.9 23.9 21.9 78 2.7 N 35 50 19 27 1011.1 1011.1 0.0
05/03:30pm 26.0 23.6 21.8 77 2.8 N 37 48 20 26 1011.3 1011.3 0.0
05/03:00pm 26.3 23.6 22.0 77 2.9 NNE 39 50 21 27 1011.4 1011.4 0.0
05/02:30pm 26.5 24.1 21.9 76 3.1 NNE 37 50 20 27 1011.6 1011.6 0.0
05/02:00pm 27.1 24.3 22.4 75 3.2 NNE 41 52 22 28 1011.7 1011.7 0.0
05/01:30pm 26.8 24.1 22.0 75 3.2 NNE 39 52 21 28 1012.2 1012.2 0.0
05/01:00pm 27.5 25.5 22.5 74 3.4 NNE 37 50 20 27 1012.5 1012.5 0.0
05/12:30pm 27.3 24.8 22.3 74 3.4 NNE 39 48 21 26 1012.7 1012.7 0.0
05/12:00pm 27.0 24.6 21.9 73 3.4 NNE 37 48 20 26 1013.2 1013.2 0.0
05/11:30am 27.5 25.6 22.0 72 3.7 NNE 35 46 19 25 1013.8 1013.8 0.0
05/11:00am 26.9 25.4 22.1 75 3.2 NNE 33 41 18 22 1014.1 1014.1 0.0
05/10:30am 26.9 25.1 22.3 76 3.1 NNE 35 43 19 23 1014.4 1014.4 0.0
05/10:00am 27.3 26.0 22.4 74 3.3 NNE 33 41 18 22 1014.6 1014.6 0.0
05/09:30am 27.1 26.0 22.5 76 3.1 NNE 32 39 17 21 1014.9 1014.9 0.0
05/09:00am 26.7 26.3 22.4 77 2.9 N 28 35 15 19 1015.2 1015.2 0.0
05/08:30am 26.6 25.8 21.6 74 3.3 N 28 33 15 18 1015.0 1015.0 0.0
05/08:00am 26.5 26.0 21.4 73 3.4 N 26 33 14 18 1015.4 1015.4 0.0
05/07:30am 25.7 25.3 21.6 78 2.7 N 26 33 14 18 1015.7 1015.7 0.0
05/07:00am 25.5 24.9 21.9 80 2.4 N 28 33 15 18 1015.9 1015.9 0.0
05/06:30am 25.1 24.9 22.1 83 2.0 N 26 33 14 18 1015.6 1015.6 0.0
05/06:00am 24.4 24.8 21.7 85 1.8 N 22 30 12 16 1015.5 1015.5 0.0
05/05:30am 23.5 24.2 21.5 88 1.3 N 20 28 11 15 1015.3 1015.3 0.0
05/05:00am 23.8 23.1 21.8 88 1.3 N 28 33 15 18 1014.7 1014.7 0.0
05/04:30am 23.7 23.7 21.6 88 1.4 N 24 32 13 17 1014.4 1014.4 0.0
05/04:00am 23.4 24.2 21.4 88 1.3 N 19 26 10 14 1014.1 1014.1 0.0
05/03:30am 23.6 23.4 21.3 87 1.5 N 24 30 13 16 1014.1 1014.1 0.0
05/03:00am 23.9 23.0 21.5 86 1.6 N 28 33 15 18 1014.2 1014.2 0.0
05/02:30am 24.0 23.8 21.3 85 1.8 N 24 35 13 19 1014.0 1014.0 0.0
05/02:00am 24.0 24.0 21.6 86 1.6 N 24 32 13 17 1014.1 1014.1 0.0
05/01:30am 23.9 24.0 21.8 88 1.4 NNE 24 32 13 17 1014.2 1014.2 0.0
05/01:00am 24.0 24.5 21.9 88 1.4 N 22 28 12 15 1014.3 1014.3 0.0
05/12:30am 24.2 24.4 22.1 88 1.4 N 24 32 13 17 1014.6 1014.6 0.0
05/12:00am 24.2 24.8 22.1 88 1.4 N 22 28 12 15 1014.7 1014.7 0.0
 
Date/Time
EST
Temp
°C
App
Temp
°C
Dew
Point
°C
Rel
Hum
%
Delta-T
°C
Wind Press
QNH
hPa
Press
MSL
hPa
Rain since
9am
mm
Dir  Spd
km/h
Gust
km/h
Spd
kts
Gust
kts
04/11:30pm 24.3 23.7 21.9 86 1.6 NNE 28 33 15 18 1014.8 1014.8 0.0
04/11:00pm 24.3 24.3 21.7 85 1.7 NNE 24 33 13 18 1014.8 1014.8 0.0
04/10:30pm 24.4 24.5 21.8 85 1.7 N 24 33 13 18 1015.1 1015.1 0.0
04/10:00pm 24.5 24.2 21.8 85 1.8 N 26 32 14 17 1014.9 1014.9 0.0
04/09:30pm 24.6 24.7 21.9 85 1.8 N 24 35 13 19 1014.9 1014.9 0.0
04/09:00pm 24.8 24.2 21.9 84 1.9 N 28 33 15 18 1014.6 1014.6 0.0
04/08:30pm 24.8 24.0 21.6 82 2.1 N 28 41 15 22 1014.5 1014.5 0.0
04/08:00pm 24.7 24.1 22.0 85 1.8 N 28 37 15 20 1014.1 1014.1 0.0
04/07:30pm 24.7 24.1 22.0 85 1.8 NNE 28 35 15 19 1013.9 1013.9 0.0
04/07:00pm 24.8 24.3 22.1 85 1.8 NNE 28 37 15 20 1013.8 1013.8 0.0
04/06:30pm 24.8 24.6 22.1 85 1.8 NNE 26 33 14 18 1013.7 1013.7 0.0
04/06:00pm 24.9 24.0 22.2 85 1.8 NNE 30 37 16 20 1013.5 1013.5 0.0
04/05:30pm 25.3 24.1 22.2 83 2.1 NNE 32 41 17 22 1013.2 1013.2 0.0
04/05:00pm 25.7 24.2 22.1 80 2.4 NNE 33 41 18 22 1013.1 1013.1 0.0
04/04:30pm 26.0 24.8 22.3 80 2.5 NNE 32 44 17 24 1012.7 1012.7 0.0
04/04:00pm 26.3 24.9 22.3 78 2.7 NNE 33 41 18 22 1012.8 1012.8 0.0
04/03:30pm 26.7 25.5 22.6 78 2.8 NNE 33 41 18 22 1012.9 1012.9 0.0
04/03:00pm 27.0 25.5 22.7 77 2.9 NNE 35 43 19 23 1013.0 1013.0 0.0
04/02:30pm 27.1 25.8 22.5 76 3.1 NNE 33 43 18 23 1013.1 1013.1 0.0
04/02:00pm 27.5 25.7 22.3 73 3.5 NNE 35 43 19 23 1013.3 1013.3 0.0
04/01:30pm 27.3 26.3 23.0 77 2.9 NNE 33 44 18 24 1013.4 1013.4 0.0
04/01:00pm 27.2 25.2 22.5 75 3.2 NNE 37 46 20 25 1013.4 1013.4 0.0
04/12:30pm 27.2 25.3 22.0 73 3.5 NNE 35 41 19 22 1014.0 1014.0 0.0
04/12:00pm 27.8 26.6 22.3 72 3.7 NNE 32 39 17 21 1014.5 1014.5 0.0
04/11:30am 27.3 26.2 21.8 72 3.7 NNE 30 37 16 20 1014.7 1014.7 0.0
04/11:00am 27.2 25.9 21.3 70 3.9 NNE 30 35 16 19 1015.2 1015.2 0.0
04/10:30am 26.8 25.6 20.9 70 3.9 NNE 28 33 15 18 1015.5 1015.5 0.0
04/10:00am 27.1 27.3 21.4 71 3.8 NNE 22 28 12 15 1015.5 1015.5 0.0
04/09:30am 26.4 27.6 21.4 74 3.3 N 17 24 9 13 1015.8 1015.8 0.0
04/09:00am 26.4 28.0 22.1 77 2.9 NNE 17 26 9 14 1015.8 1015.8 20.2
04/08:30am 25.9 26.6 21.5 76 2.9 NNE 20 28 11 15 1015.7 1015.7 20.2
04/08:00am 26.0 26.7 21.2 75 3.2 N 19 26 10 14 1016.0 1016.0 20.2
04/07:30am 25.3 25.7 20.7 75 3.0 NNE 19 24 10 13 1015.8 1015.8 20.2
04/07:00am 25.2 26.1 20.9 77 2.8 NNE 17 22 9 12 1015.6 1015.6 20.2
04/06:30am 24.8 27.1 21.3 81 2.3 NE 11 15 6 8 1015.8 1015.8 20.2
04/06:00am 24.4 27.2 22.3 88 1.4 NE 11 15 6 8 1015.5 1015.5 20.2
04/05:30am 23.5 26.4 21.7 90 1.2 ENE 9 15 5 8 1015.0 1015.0 20.2
04/05:00am 22.6 24.9 20.6 88 1.3 E 9 15 5 8 1015.1 1015.1 20.2
04/04:30am 21.8 22.9 19.6 87 1.4 ESE 13 19 7 10 1015.0 1015.0 20.2
04/04:00am 20.9 22.3 19.6 92 0.8 S 11 15 6 8 1014.3 1014.3 20.2
04/03:30am 20.8 21.3 20.0 95 0.5 SW 17 24 9 13 1013.3 1013.3 20.2
04/03:00am 21.2 22.5 20.1 93 0.7 SSW 13 19 7 10 1013.4 1013.4 20.2
04/02:30am 22.2 23.2 20.2 88 1.3 SSW 15 19 8 10 1013.4 1013.4 20.2
04/02:00am 21.9 23.5 20.8 93 0.7 SSW 13 17 7 9 1013.3 1013.3 20.2
04/01:30am 22.4 23.5 21.3 93 0.7 W 17 19 9 10 1013.5 1013.5 20.2
04/01:00am 22.3 24.1 21.2 93 0.7 W 13 20 7 11 1014.3 1014.3 20.2
04/12:30am 22.7 24.6 21.3 92 0.9 NNW 13 26 7 14 1014.3 1014.3 20.2
04/12:00am 22.7 24.5 21.2 91 1.0 W 13 17 7 9 1016.0 1016.0 20.2
 
Date/Time
EST
Temp
°C
App
Temp
°C
Dew
Point
°C
Rel
Hum
%
Delta-T
°C
Wind Press
QNH
hPa
Press
MSL
hPa
Rain since
9am
mm
Dir  Spd
km/h
Gust
km/h
Spd
kts
Gust
kts
03/11:30pm 23.4 25.3 21.3 88 1.4 WNW 13 17 7 9 1015.7 1015.7 20.2
03/11:00pm 24.3 25.1 22.4 89 1.3 N 22 32 12 17 1016.3 1016.3 20.2
03/10:30pm 22.7 25.0 20.7 88 1.3 NE 9 13 5 7 1016.8 1016.8 20.2

Other Formats:

Comma delimited format used in spreadsheet applications
http://www.bom.gov.au/fwo/IDQ60801/IDQ60801.94578.axf

JavaScript Object Notation format (JSON) in row-major order
http://www.bom.gov.au/fwo/IDQ60801/IDQ60801.94578.json